Time;durP1;ratioP1;P1;durP2;ratioP2;P2;SDS_P1;SDS_P2;PMS_P1;PMS_P2;Temp;Humidity;BMP_temperature;BMP_pressure;BME280_temperature;BME280_humidity;BME280_pressure;Samples;Min_cycle;Max_cycle;Signal;HPM_P1;HPM_P2
2024/01/03 00:00:33;;;;;;;14.67;3.37;;;;;;;-146.42;100.00;61981.06;5010194;28;20911;-66
2024/01/03 00:02:59;;;;;;;1.90;1.80;;;;;;;-146.42;100.00;61981.06;5010437;28;20175;-66
2024/01/03 00:05:35;;;;;;;3.93;3.77;;;;;;;-146.42;100.00;61981.06;5010150;28;20183;-66
2024/01/03 00:08:00;;;;;;;0.57;0.57;;;;;;;-146.42;100.00;61981.06;5010204;28;20535;-66
2024/01/03 00:10:32;;;;;;;0.70;0.70;;;;;;;-146.42;100.00;61981.06;5010764;28;20277;-66
2024/01/03 00:12:58;;;;;;;0.40;0.40;;;;;;;-146.42;100.00;61981.06;5012267;28;20176;-66
2024/01/03 00:15:58;;;;;;;0.70;0.70;;;;;;;-146.42;100.00;61981.06;5014239;28;20172;-66
2024/01/03 00:18:37;;;;;;;0.40;0.40;;;;;;;-146.42;100.00;61981.06;4974531;28;20200;-66
2024/01/03 00:21:05;;;;;;;1.43;1.33;;;;;;;-146.42;100.00;61981.06;5013942;28;20255;-66
2024/01/03 00:23:45;;;;;;;0.60;0.60;;;;;;;-146.42;100.00;61981.06;5013927;28;20555;-66
2024/01/03 00:26:13;;;;;;;0.90;0.90;;;;;;;-146.42;100.00;61981.06;5007366;28;20181;-66
2024/01/03 00:28:39;;;;;;;0.50;0.50;;;;;;;-146.42;100.00;61981.06;4994308;28;20188;-66
2024/01/03 00:31:05;;;;;;;0.40;0.40;;;;;;;-146.42;100.00;61981.06;4994278;28;20205;-66
2024/01/03 00:33:35;;;;;;;2.00;1.53;;;;;;;-146.42;100.00;61981.06;5011941;28;20678;-66
2024/01/03 00:36:00;;;;;;;0.40;0.40;;;;;;;-146.42;100.00;61981.06;5013766;28;20227;-66
2024/01/03 00:38:26;;;;;;;0.40;0.40;;;;;;;-146.42;100.00;61981.06;4977876;28;20177;-66
2024/01/03 00:40:57;;;;;;;0.50;0.50;;;;;;;-146.42;100.00;61981.06;4994208;28;20541;-65
2024/01/03 00:43:22;;;;;;;0.77;0.77;;;;;;;-146.42;100.00;61981.06;4994204;28;20180;-66
2024/01/03 00:45:48;;;;;;;0.50;0.50;;;;;;;-146.42;100.00;61981.06;4993919;28;20173;-66
2024/01/03 00:48:15;;;;;;;0.40;0.40;;;;;;;-146.42;100.00;61981.06;4994064;28;20204;-65
2024/01/03 00:50:41;;;;;;;0.40;0.40;;;;;;;-146.42;100.00;61981.06;4993936;28;20639;-66
2024/01/03 00:53:07;;;;;;;0.50;0.50;;;;;;;-146.42;100.00;61981.06;4994082;28;20185;-66
2024/01/03 00:55:34;;;;;;;0.40;0.40;;;;;;;-146.42;100.00;61981.06;4994217;28;21001;-66
2024/01/03 00:57:59;;;;;;;0.90;0.90;;;;;;;-146.42;100.00;61981.06;4993850;28;20177;-66
2024/01/03 01:00:25;;;;;;;0.50;0.50;;;;;;;-146.42;100.00;61981.06;4993731;28;20180;-66
2024/01/03 01:02:51;;;;;;;0.40;0.40;;;;;;;-146.42;100.00;61981.06;4993783;28;20176;-65
2024/01/03 01:05:16;;;;;;;0.40;0.40;;;;;;;-146.42;100.00;61981.06;4993806;28;20215;-65
2024/01/03 01:07:42;;;;;;;0.53;0.53;;;;;;;-146.42;100.00;61981.06;4993539;28;20180;-66
2024/01/03 01:10:08;;;;;;;0.40;0.40;;;;;;;-146.42;100.00;61981.06;4993244;28;20614;-66
2024/01/03 01:12:33;;;;;;;0.70;0.70;;;;;;;-146.42;100.00;61981.06;4993740;28;20210;-66
2024/01/03 01:15:00;;;;;;;0.50;0.50;;;;;;;-146.42;100.00;61981.06;4993458;28;20255;-66
2024/01/03 01:17:26;;;;;;;0.87;0.87;;;;;;;-146.42;100.00;61981.06;4993191;28;20297;-66
2024/01/03 01:19:51;;;;;;;0.50;0.50;;;;;;;-146.42;100.00;61981.06;4993588;28;20256;-66
2024/01/03 01:22:17;;;;;;;0.47;0.47;;;;;;;-146.42;100.00;61981.06;4992208;28;20169;-66
2024/01/03 01:24:43;;;;;;;0.40;0.40;;;;;;;-146.42;100.00;61981.06;4993482;28;20168;-66
2024/01/03 01:27:08;;;;;;;0.40;0.40;;;;;;;-146.42;100.00;61981.06;4993366;28;20239;-66
2024/01/03 01:29:34;;;;;;;0.50;0.50;;;;;;;-146.42;100.00;61981.06;4993259;28;20169;-66
2024/01/03 01:32:00;;;;;;;0.40;0.40;;;;;;;-146.42;100.00;61981.06;4993069;28;20189;-66
2024/01/03 01:34:26;;;;;;;0.60;0.60;;;;;;;-146.42;100.00;61981.06;5009170;28;20172;-66
2024/01/03 01:36:51;;;;;;;1.40;1.40;;;;;;;-146.42;100.00;61981.06;5013013;28;21004;-66
2024/01/03 01:39:17;;;;;;;0.40;0.40;;;;;;;-146.42;100.00;61981.06;5012856;28;20187;-66
2024/01/03 01:41:42;;;;;;;0.53;0.53;;;;;;;-146.42;100.00;61981.06;4998816;28;20173;-66
2024/01/03 01:44:08;;;;;;;0.43;0.43;;;;;;;-146.42;100.00;61981.06;4993173;28;20181;-66
2024/01/03 01:46:36;;;;;;;0.50;0.50;;;;;;;-146.42;100.00;61981.06;4992699;28;20236;-66
2024/01/03 01:49:03;;;;;;;0.50;0.50;;;;;;;-146.42;100.00;61981.06;4992875;28;20633;-66
2024/01/03 01:51:30;;;;;;;2.37;2.27;;;;;;;-146.42;100.00;61981.06;4975016;28;20641;-66
2024/01/03 01:53:56;;;;;;;0.40;0.40;;;;;;;-146.42;100.00;61981.06;4992396;28;20265;-66
2024/01/03 01:56:22;;;;;;;0.60;0.60;;;;;;;-146.42;100.00;61981.06;4992321;28;20263;-66
2024/01/03 01:58:50;;;;;;;0.40;0.40;;;;;;;-146.42;100.00;61981.06;4992371;28;20268;-66
2024/01/03 02:01:17;;;;;;;0.43;0.43;;;;;;;-146.42;100.00;61981.06;4992665;28;20173;-66
2024/01/03 02:03:44;;;;;;;1.50;1.40;;;;;;;-146.42;100.00;61981.06;4992567;28;20184;-66
2024/01/03 02:06:09;;;;;;;3.47;3.33;;;;;;;-146.42;100.00;61981.06;4992542;28;20181;-66
2024/01/03 02:08:35;;;;;;;0.40;0.40;;;;;;;-146.42;100.00;61981.06;4992658;28;20708;-65
2024/01/03 02:11:03;;;;;;;0.40;0.40;;;;;;;-146.42;100.00;61981.06;4992228;28;20216;-66
2024/01/03 02:13:29;;;;;;;1.70;1.60;;;;;;;-146.42;100.00;61981.06;4992498;28;20192;-66
2024/01/03 02:15:54;;;;;;;0.40;0.40;;;;;;;-146.42;100.00;61981.06;4992402;28;20177;-66
2024/01/03 02:18:20;;;;;;;7.77;7.40;;;;;;;-146.42;100.00;61981.06;4992360;28;20181;-65
2024/01/03 02:20:47;;;;;;;0.50;0.50;;;;;;;-146.42;100.00;61981.06;4975055;28;20173;-66
2024/01/03 02:23:13;;;;;;;0.50;0.50;;;;;;;-146.42;100.00;61981.06;4992300;28;20280;-66
2024/01/03 02:25:40;;;;;;;0.50;0.50;;;;;;;-146.42;100.00;61981.06;4992431;28;20177;-66
2024/01/03 02:28:10;;;;;;;1.80;1.70;;;;;;;-146.42;100.00;61981.06;4992320;28;20664;-65
2024/01/03 02:30:36;;;;;;;0.33;0.33;;;;;;;-146.42;100.00;61981.06;4992381;28;20196;-65
2024/01/03 02:33:02;;;;;;;0.50;0.50;;;;;;;-146.42;100.00;61981.06;4991907;28;20173;-66
2024/01/03 02:35:27;;;;;;;0.40;0.40;;;;;;;-146.42;100.00;61981.06;4992073;28;20178;-66
2024/01/03 02:37:52;;;;;;;0.40;0.40;;;;;;;-146.42;100.00;61981.06;4992575;28;20173;-66
2024/01/03 02:40:18;;;;;;;3.30;2.67;;;;;;;-146.42;100.00;61981.06;5007383;28;20559;-66
2024/01/03 02:42:43;;;;;;;1.07;1.00;;;;;;;-146.42;100.00;61981.06;5011611;28;20176;-66
2024/01/03 02:45:09;;;;;;;0.40;0.40;;;;;;;-146.42;100.00;61981.06;5011525;28;20567;-66
2024/01/03 02:47:35;;;;;;;0.70;0.70;;;;;;;-146.42;100.00;61981.06;5011494;28;20176;-66
2024/01/03 02:50:01;;;;;;;0.83;0.83;;;;;;;-146.42;100.00;61981.06;5011583;28;20176;-66
2024/01/03 02:52:26;;;;;;;0.43;0.43;;;;;;;-146.42;100.00;61981.06;5011573;28;20176;-66
2024/01/03 02:54:52;;;;;;;0.70;0.70;;;;;;;-146.42;100.00;61981.06;5011281;28;20176;-66
2024/01/03 02:57:17;;;;;;;0.40;0.40;;;;;;;-146.42;100.00;61981.06;5011238;28;20577;-66
2024/01/03 02:59:43;;;;;;;0.40;0.40;;;;;;;-146.42;100.00;61981.06;5011183;28;20172;-66
2024/01/03 03:02:08;;;;;;;0.50;0.50;;;;;;;-146.42;100.00;61981.06;5011085;28;20238;-66
2024/01/03 03:04:33;;;;;;;0.40;0.40;;;;;;;-146.42;100.00;61981.06;5011159;28;20632;-66
2024/01/03 03:06:59;;;;;;;0.47;0.47;;;;;;;-146.42;100.00;61981.06;5010948;28;20180;-66
2024/01/03 03:09:24;;;;;;;0.50;0.50;;;;;;;-146.42;100.00;61981.06;5011000;28;20216;-66
2024/01/03 03:11:50;;;;;;;0.40;0.40;;;;;;;-146.42;100.00;61981.06;5010939;28;20199;-66
2024/01/03 03:14:15;;;;;;;57.43;51.63;;;;;;;-146.42;100.00;61981.06;5010923;28;20175;-66
2024/01/03 03:16:41;;;;;;;0.40;0.40;;;;;;;-146.42;100.00;61981.06;5010961;28;20559;-67
2024/01/03 03:19:06;;;;;;;0.33;0.33;;;;;;;-146.42;100.00;61981.06;5010927;28;20285;-66
2024/01/03 03:21:32;;;;;;;0.30;0.30;;;;;;;-146.42;100.00;61981.06;5011138;28;20662;-66
2024/01/03 03:23:57;;;;;;;0.40;0.40;;;;;;;-146.42;100.00;61981.06;5010931;28;20263;-66
2024/01/03 03:26:23;;;;;;;0.50;0.50;;;;;;;-146.42;100.00;61981.06;4993341;28;20183;-65
2024/01/03 03:28:48;;;;;;;0.40;0.40;;;;;;;-146.42;100.00;61981.06;5010816;28;20255;-66
2024/01/03 03:31:14;;;;;;;0.53;0.53;;;;;;;-146.42;100.00;61981.06;5010614;28;20211;-65
2024/01/03 03:33:39;;;;;;;0.50;0.50;;;;;;;-146.42;100.00;61981.06;4991425;28;20180;-66
2024/01/03 03:36:12;;;;;;;0.60;0.60;;;;;;;-146.42;100.00;61981.06;5010668;28;20180;-66
2024/01/03 03:38:38;;;;;;;0.40;0.40;;;;;;;-146.42;100.00;61981.06;5010814;28;20184;-66
2024/01/03 03:41:11;;;;;;;0.40;0.40;;;;;;;-146.42;100.00;61981.06;5010735;28;20176;-66
2024/01/03 03:43:38;;;;;;;0.60;0.60;;;;;;;-146.42;100.00;61981.06;5010502;28;20176;-65
2024/01/03 03:46:05;;;;;;;0.40;0.40;;;;;;;-146.42;100.00;61981.06;5009960;28;20611;-65
2024/01/03 03:48:30;;;;;;;1.03;1.03;;;;;;;-146.42;100.00;61981.06;5010510;28;20185;-66
2024/01/03 03:50:56;;;;;;;0.40;0.40;;;;;;;-146.42;100.00;61981.06;5010382;28;20197;-66
2024/01/03 03:53:21;;;;;;;4.27;2.13;;;;;;;-146.42;100.00;61981.06;5010697;28;20176;-66
2024/01/03 03:55:47;;;;;;;0.40;0.40;;;;;;;-146.42;100.00;61981.06;5010363;28;20186;-66
2024/01/03 03:58:13;;;;;;;0.40;0.40;;;;;;;-146.42;100.00;61981.06;5010392;28;20702;-66
2024/01/03 04:00:38;;;;;;;0.40;0.40;;;;;;;-146.42;100.00;61981.06;5010232;28;20171;-65
2024/01/03 04:03:07;;;;;;;0.40;0.40;;;;;;;-146.42;100.00;61981.06;5010235;28;20264;-66
2024/01/03 04:05:37;;;;;;;0.60;0.60;;;;;;;-146.42;100.00;61981.06;5010431;28;20227;-66
2024/01/03 04:08:03;;;;;;;0.50;0.50;;;;;;;-146.42;100.00;61981.06;5005855;28;20208;-66
2024/01/03 04:10:28;;;;;;;0.40;0.40;;;;;;;-146.42;100.00;61981.06;5009593;28;20248;-66
2024/01/03 04:12:55;;;;;;;0.50;0.50;;;;;;;-146.42;100.00;61981.06;5010157;28;20176;-66
2024/01/03 04:15:24;;;;;;;0.40;0.40;;;;;;;-146.42;100.00;61981.06;5009954;28;20226;-66
2024/01/03 04:17:50;;;;;;;0.50;0.50;;;;;;;-146.42;100.00;61981.06;5010253;28;20176;-66
2024/01/03 04:20:16;;;;;;;0.60;0.60;;;;;;;-146.42;100.00;61981.06;5010283;28;20259;-66
2024/01/03 04:22:43;;;;;;;0.40;0.40;;;;;;;-146.42;100.00;61981.06;5009901;28;20260;-66
2024/01/03 04:25:10;;;;;;;4.73;2.77;;;;;;;-146.42;100.00;61981.06;5009896;28;20573;-66
2024/01/03 04:27:36;;;;;;;0.50;0.50;;;;;;;-146.42;100.00;61981.06;5009959;28;20250;-66
2024/01/03 04:30:03;;;;;;;1.53;1.53;;;;;;;-146.42;100.00;61981.06;5009962;28;20636;-66
2024/01/03 04:32:29;;;;;;;0.93;0.93;;;;;;;-146.42;100.00;61981.06;5009871;28;20173;-66
2024/01/03 04:34:55;;;;;;;0.60;0.60;;;;;;;-146.42;100.00;61981.06;5010052;28;20234;-66
2024/01/03 04:37:20;;;;;;;0.73;0.73;;;;;;;-146.42;100.00;61981.06;5009861;28;20171;-66
2024/01/03 04:39:46;;;;;;;0.50;0.50;;;;;;;-146.42;100.00;61981.06;5009560;28;20180;-66
2024/01/03 04:42:11;;;;;;;0.80;0.80;;;;;;;-146.42;100.00;61981.06;5009816;28;20199;-66
2024/01/03 04:44:37;;;;;;;0.40;0.40;;;;;;;-146.42;100.00;61981.06;5009977;28;20176;-66
2024/01/03 04:47:03;;;;;;;1.00;1.00;;;;;;;-146.42;100.00;61981.06;5009912;28;20259;-65
2024/01/03 04:49:29;;;;;;;1.00;1.00;;;;;;;-146.42;100.00;61981.06;5010040;28;20255;-66
2024/01/03 04:51:55;;;;;;;0.50;0.50;;;;;;;-146.42;100.00;61981.06;5009438;28;20200;-66
2024/01/03 04:54:20;;;;;;;0.70;0.70;;;;;;;-146.42;100.00;61981.06;5007403;28;20176;-66
2024/01/03 04:56:47;;;;;;;0.50;0.50;;;;;;;-146.42;100.00;61981.06;4993633;28;20187;-66
2024/01/03 04:59:12;;;;;;;1.43;1.40;;;;;;;-146.42;100.00;61981.06;4993804;28;20223;-66
2024/01/03 05:01:39;;;;;;;0.60;0.60;;;;;;;-146.42;100.00;61981.06;5011372;28;20176;-66
2024/01/03 05:04:05;;;;;;;1.17;1.17;;;;;;;-146.42;100.00;61981.06;5013477;28;20246;-65
2024/01/03 05:06:30;;;;;;;0.50;0.50;;;;;;;-146.42;100.00;61981.06;5013314;28;20613;-67
2024/01/03 05:08:56;;;;;;;0.53;0.53;;;;;;;-146.42;100.00;61981.06;5013231;28;20169;-67
2024/01/03 05:11:21;;;;;;;0.40;0.40;;;;;;;-146.42;100.00;61981.06;5012903;28;20596;-66
2024/01/03 05:13:47;;;;;;;1.23;1.23;;;;;;;-146.42;100.00;61981.06;5013047;28;20259;-66
2024/01/03 05:16:12;;;;;;;0.40;0.40;;;;;;;-146.42;100.00;61981.06;5013222;28;20190;-66
2024/01/03 05:18:38;;;;;;;2.80;2.70;;;;;;;-146.42;100.00;61981.06;5013015;28;20644;-66
2024/01/03 05:21:05;;;;;;;0.70;0.70;;;;;;;-146.42;100.00;61981.06;5012754;28;20180;-66
2024/01/03 05:23:31;;;;;;;0.57;0.57;;;;;;;-146.42;100.00;61981.06;5013141;28;20180;-66
2024/01/03 05:25:56;;;;;;;0.40;0.40;;;;;;;-146.42;100.00;61981.06;5012943;28;20177;-66
2024/01/03 05:28:22;;;;;;;0.50;0.50;;;;;;;-146.42;100.00;61981.06;5012954;28;20231;-66
2024/01/03 05:30:47;;;;;;;0.40;0.40;;;;;;;-146.42;100.00;61981.06;5012978;28;20196;-66
2024/01/03 05:33:13;;;;;;;0.53;0.53;;;;;;;-146.42;100.00;61981.06;5012779;28;20561;-66
2024/01/03 05:35:38;;;;;;;0.40;0.40;;;;;;;-146.42;100.00;61981.06;5012839;28;20184;-66
2024/01/03 05:38:03;;;;;;;0.47;0.47;;;;;;;-146.42;100.00;61981.06;5012603;28;20184;-65
2024/01/03 05:40:29;;;;;;;1.03;1.03;;;;;;;-146.42;100.00;61981.06;5012825;28;20179;-66
2024/01/03 05:42:54;;;;;;;1.13;1.13;;;;;;;-146.42;100.00;61981.06;5012837;28;20176;-67
2024/01/03 05:45:20;;;;;;;0.40;0.40;;;;;;;-146.42;100.00;61981.06;5012798;28;20176;-67
2024/01/03 05:47:45;;;;;;;2.03;1.93;;;;;;;-146.42;100.00;61981.06;5012692;28;20199;-67
2024/01/03 05:50:11;;;;;;;0.93;0.93;;;;;;;-146.42;100.00;61981.06;5012470;28;20179;-68
2024/01/03 05:52:36;;;;;;;1.37;1.37;;;;;;;-146.42;100.00;61981.06;5012536;28;20656;-68
2024/01/03 05:55:02;;;;;;;3.70;3.50;;;;;;;-146.42;100.00;61981.06;5012175;28;20187;-68
2024/01/03 05:57:28;;;;;;;1.07;1.07;;;;;;;-146.42;100.00;61981.06;4993720;28;20184;-68
2024/01/03 05:59:54;;;;;;;0.90;0.90;;;;;;;-146.42;100.00;61981.06;5011654;28;20173;-68
2024/01/03 06:02:19;;;;;;;40.47;16.13;;;;;;;-146.42;100.00;61981.06;5011579;28;20656;-68
2024/01/03 06:04:46;;;;;;;0.67;0.67;;;;;;;-146.42;100.00;61981.06;4994098;28;20179;-68
2024/01/03 06:07:12;;;;;;;0.40;0.40;;;;;;;-146.42;100.00;61981.06;5011509;28;20172;-67
2024/01/03 06:09:37;;;;;;;0.50;0.50;;;;;;;-146.42;100.00;61981.06;5010716;28;20303;-68
2024/01/03 06:12:03;;;;;;;2.20;2.00;;;;;;;-146.42;100.00;61981.06;5012059;28;20623;-68
2024/01/03 06:14:29;;;;;;;0.50;0.50;;;;;;;-146.42;100.00;61981.06;5012231;28;20261;-67
2024/01/03 06:16:55;;;;;;;1.10;1.10;;;;;;;-146.42;100.00;61981.06;5011956;28;20245;-68
2024/01/03 06:19:20;;;;;;;0.90;0.90;;;;;;;-146.42;100.00;61981.06;5012022;28;20180;-67
2024/01/03 06:21:46;;;;;;;4.83;3.43;;;;;;;-146.42;100.00;61981.06;5012194;28;20552;-67
2024/01/03 06:24:12;;;;;;;0.60;0.60;;;;;;;-146.42;100.00;61981.06;5012131;28;20284;-67
2024/01/03 06:26:37;;;;;;;2.17;2.13;;;;;;;-146.42;100.00;61981.06;5011914;28;20598;-67
2024/01/03 06:29:03;;;;;;;0.40;0.40;;;;;;;-146.42;100.00;61981.06;5011824;28;20181;-67
2024/01/03 06:31:30;;;;;;;0.40;0.40;;;;;;;-146.42;100.00;61981.06;5011579;28;20196;-67
2024/01/03 06:33:55;;;;;;;0.40;0.40;;;;;;;-146.42;100.00;61981.06;4994855;28;20180;-67
2024/01/03 06:36:21;;;;;;;1.33;1.33;;;;;;;-146.42;100.00;61981.06;4991876;28;20552;-67
2024/01/03 06:38:47;;;;;;;0.67;0.67;;;;;;;-146.42;100.00;61981.06;4992134;28;20204;-67
2024/01/03 06:41:12;;;;;;;0.50;0.50;;;;;;;-146.42;100.00;61981.06;4991928;28;20173;-67
2024/01/03 06:43:38;;;;;;;1.23;1.23;;;;;;;-146.42;100.00;61981.06;4992025;28;20212;-67
2024/01/03 06:46:03;;;;;;;1.00;1.00;;;;;;;-146.42;100.00;61981.06;4991866;28;20235;-67
2024/01/03 06:48:29;;;;;;;0.40;0.40;;;;;;;-146.42;100.00;61981.06;4991852;28;20173;-67
2024/01/03 06:50:55;;;;;;;0.50;0.50;;;;;;;-146.42;100.00;61981.06;4991517;28;20201;-67
2024/01/03 06:53:20;;;;;;;0.80;0.80;;;;;;;-146.42;100.00;61981.06;4991794;28;20188;-67
2024/01/03 06:55:46;;;;;;;0.80;0.80;;;;;;;-146.42;100.00;61981.06;4991907;28;20188;-67
2024/01/03 06:58:11;;;;;;;0.40;0.40;;;;;;;-146.42;100.00;61981.06;4991822;28;20169;-67
2024/01/03 07:00:37;;;;;;;0.70;0.70;;;;;;;-146.42;100.00;61981.06;4991889;28;20184;-67
2024/01/03 07:03:03;;;;;;;5.37;5.13;;;;;;;-146.42;100.00;61981.06;4991935;28;20232;-67
2024/01/03 07:05:29;;;;;;;0.40;0.40;;;;;;;-146.42;100.00;61981.06;4991757;28;20227;-67
2024/01/03 07:07:54;;;;;;;0.50;0.50;;;;;;;-146.42;100.00;61981.06;4991465;28;20600;-67
2024/01/03 07:10:20;;;;;;;2.57;2.20;;;;;;;-146.42;100.00;61981.06;4993095;28;20266;-66
2024/01/03 07:12:45;;;;;;;0.43;0.43;;;;;;;-146.42;100.00;61981.06;5009921;28;20636;-66
2024/01/03 07:15:17;;;;;;;0.40;0.40;;;;;;;-146.42;100.00;61981.06;5011124;28;20688;-66
2024/01/03 07:17:43;;;;;;;0.43;0.43;;;;;;;-146.42;100.00;61981.06;5010562;28;20168;-67
2024/01/03 07:20:09;;;;;;;16.37;14.63;;;;;;;-146.42;100.00;61981.06;4997459;28;20180;-66
2024/01/03 07:22:34;;;;;;;0.40;0.40;;;;;;;-146.42;100.00;61981.06;5009333;28;20176;-66
2024/01/03 07:25:00;;;;;;;1.60;1.60;;;;;;;-146.42;100.00;61981.06;5010732;28;20191;-67
2024/01/03 07:27:25;;;;;;;0.50;0.50;;;;;;;-146.42;100.00;61981.06;5010521;28;20211;-66
2024/01/03 07:29:51;;;;;;;0.40;0.40;;;;;;;-146.42;100.00;61981.06;5011053;28;20640;-66
2024/01/03 07:32:16;;;;;;;0.50;0.50;;;;;;;-146.42;100.00;61981.06;5010720;28;20253;-66
2024/01/03 07:34:42;;;;;;;0.40;0.40;;;;;;;-146.42;100.00;61981.06;5010890;28;20176;-66
2024/01/03 07:37:07;;;;;;;0.50;0.50;;;;;;;-146.42;100.00;61981.06;5010797;28;20674;-66
2024/01/03 07:39:33;;;;;;;0.40;0.40;;;;;;;-146.42;100.00;61981.06;5010712;28;20231;-66
2024/01/03 07:41:58;;;;;;;0.60;0.60;;;;;;;-146.42;100.00;61981.06;5010672;28;20184;-67
2024/01/03 07:44:24;;;;;;;0.93;0.93;;;;;;;-146.42;100.00;61981.06;5010511;28;20617;-66
2024/01/03 07:46:49;;;;;;;0.40;0.40;;;;;;;-146.42;100.00;61981.06;5010800;28;20259;-66
2024/01/03 07:49:16;;;;;;;0.73;0.73;;;;;;;-146.42;100.00;61981.06;5010854;28;20966;-66
2024/01/03 07:51:41;;;;;;;1.90;1.80;;;;;;;-146.42;100.00;61981.06;4983031;28;20319;-67
2024/01/03 07:54:07;;;;;;;1.50;1.47;;;;;;;-146.42;100.00;61981.06;4990648;28;20624;-67
2024/01/03 07:56:34;;;;;;;0.40;0.40;;;;;;;-146.42;100.00;61981.06;4973221;28;20184;-66
2024/01/03 07:59:00;;;;;;;0.40;0.40;;;;;;;-146.42;100.00;61981.06;4973136;28;20653;-66
2024/01/03 08:01:26;;;;;;;3.40;2.20;;;;;;;-146.42;100.00;61981.06;4990975;28;20173;-67
2024/01/03 08:03:54;;;;;;;0.67;0.67;;;;;;;-146.42;100.00;61981.06;4973105;28;20188;-67
2024/01/03 08:06:23;;;;;;;1.67;1.67;;;;;;;-146.42;100.00;61981.06;4990731;28;20223;-67
2024/01/03 08:08:48;;;;;;;1.07;1.07;;;;;;;-146.42;100.00;61981.06;5008069;28;20226;-66
2024/01/03 08:11:14;;;;;;;2.93;2.83;;;;;;;-146.42;100.00;61981.06;5010100;28;20220;-66
2024/01/03 08:13:39;;;;;;;4.90;4.50;;;;;;;-146.42;100.00;61981.06;5010408;28;20169;-66
2024/01/03 08:16:08;;;;;;;0.80;0.80;;;;;;;-146.42;100.00;61981.06;5009887;28;20314;-67
2024/01/03 08:18:33;;;;;;;0.40;0.40;;;;;;;-146.42;100.00;61981.06;4996633;28;20268;-67
2024/01/03 08:20:59;;;;;;;2.30;2.20;;;;;;;-146.42;100.00;61981.06;4990517;28;20248;-67
2024/01/03 08:23:24;;;;;;;2.93;2.83;;;;;;;-146.42;100.00;61981.06;4990727;28;20219;-66
2024/01/03 08:25:50;;;;;;;0.77;0.77;;;;;;;-146.42;100.00;61981.06;4990607;28;20176;-67
2024/01/03 08:28:15;;;;;;;3.83;3.03;;;;;;;-146.42;100.00;61981.06;4990658;28;20177;-66
2024/01/03 08:30:41;;;;;;;0.73;0.73;;;;;;;-146.42;100.00;61981.06;4990443;28;20212;-66
2024/01/03 08:33:06;;;;;;;5.77;4.63;;;;;;;-146.42;100.00;61981.06;4994414;28;20174;-66
2024/01/03 08:35:32;;;;;;;1.17;1.13;;;;;;;-146.42;100.00;61981.06;4994436;28;20261;-66
2024/01/03 08:37:57;;;;;;;4.93;4.73;;;;;;;-146.42;100.00;61981.06;4994392;28;20228;-66
2024/01/03 08:40:23;;;;;;;0.60;0.60;;;;;;;-146.42;100.00;61981.06;4994283;28;20245;-66
2024/01/03 08:42:49;;;;;;;1.97;1.97;;;;;;;-146.42;100.00;61981.06;4994431;28;20235;-66
2024/01/03 08:45:15;;;;;;;0.60;0.60;;;;;;;-146.42;100.00;61981.06;4994219;28;20185;-66
2024/01/03 08:47:40;;;;;;;7.00;6.43;;;;;;;-146.42;100.00;61981.06;4997018;28;20164;-66
2024/01/03 08:50:06;;;;;;;0.40;0.40;;;;;;;-146.42;100.00;61981.06;4994159;28;20205;-66
2024/01/03 08:52:32;;;;;;;1.67;1.57;;;;;;;-146.42;100.00;61981.06;4993930;28;20197;-66
2024/01/03 08:54:59;;;;;;;5.20;2.60;;;;;;;-146.42;100.00;61981.06;4993843;28;20672;-66
2024/01/03 08:57:24;;;;;;;5.33;3.10;;;;;;;-146.42;100.00;61981.06;4993998;28;20169;-66
2024/01/03 08:59:50;;;;;;;0.80;0.80;;;;;;;-146.42;100.00;61981.06;4993832;28;20251;-66
2024/01/03 09:02:15;;;;;;;1.20;1.20;;;;;;;-146.42;100.00;61981.06;4993846;28;20167;-66
2024/01/03 09:04:41;;;;;;;2.03;1.93;;;;;;;-146.42;100.00;61981.06;4993801;28;20188;-66
2024/01/03 09:07:07;;;;;;;0.53;0.53;;;;;;;-146.42;100.00;61981.06;4993833;28;20208;-67
2024/01/03 09:09:32;;;;;;;2.50;2.40;;;;;;;-146.42;100.00;61981.06;4993035;28;20232;-66
2024/01/03 09:11:57;;;;;;;0.97;0.97;;;;;;;-146.42;100.00;61981.06;4993672;28;20193;-66
2024/01/03 09:14:23;;;;;;;0.40;0.40;;;;;;;-146.42;100.00;61981.06;4993820;28;20678;-66
2024/01/03 09:16:50;;;;;;;2.67;2.57;;;;;;;-146.42;100.00;61981.06;4993647;28;20668;-66
2024/01/03 09:19:17;;;;;;;3.23;2.93;;;;;;;-146.42;100.00;61981.06;4993757;28;20689;-66
2024/01/03 09:21:45;;;;;;;1.57;1.47;;;;;;;-146.42;100.00;61981.06;4993440;28;20168;-66
2024/01/03 09:24:11;;;;;;;11.60;4.70;;;;;;;-146.42;100.00;61981.06;4993740;28;20544;-66
2024/01/03 09:26:36;;;;;;;0.97;0.97;;;;;;;-146.42;100.00;61981.06;4993612;28;20231;-66
2024/01/03 09:29:02;;;;;;;2.17;2.07;;;;;;;-146.42;100.00;61981.06;4993450;28;20199;-66
2024/01/03 09:31:27;;;;;;;9.43;3.23;;;;;;;-146.42;100.00;61981.06;4993519;28;20600;-66
2024/01/03 09:33:54;;;;;;;1.67;1.57;;;;;;;-146.42;100.00;61981.06;4993414;28;20208;-66
2024/01/03 09:36:20;;;;;;;0.70;0.70;;;;;;;-146.42;100.00;61981.06;4993324;28;20176;-67
2024/01/03 09:38:47;;;;;;;0.60;0.60;;;;;;;-146.42;100.00;61981.06;4993251;28;20284;-67
2024/01/03 09:41:13;;;;;;;1.40;1.30;;;;;;;-146.42;100.00;61981.06;5012794;28;20176;-67
2024/01/03 09:43:42;;;;;;;0.40;0.40;;;;;;;-146.42;100.00;61981.06;5011707;28;20176;-66
2024/01/03 09:46:10;;;;;;;6.60;4.47;;;;;;;-146.42;100.00;61981.06;5012706;28;20214;-66
2024/01/03 09:48:40;;;;;;;3.27;3.13;;;;;;;-146.42;100.00;61981.06;5012664;28;20176;-66
2024/01/03 09:51:07;;;;;;;0.80;0.80;;;;;;;-146.42;100.00;61981.06;4994215;28;20212;-65
2024/01/03 09:53:35;;;;;;;0.43;0.43;;;;;;;-146.42;100.00;61981.06;5012360;28;20656;-65
2024/01/03 09:56:00;;;;;;;1.90;1.80;;;;;;;-146.42;100.00;61981.06;5009580;28;20654;-65
2024/01/03 09:58:27;;;;;;;1.07;1.07;;;;;;;-146.42;100.00;61981.06;5002898;28;20168;-65
2024/01/03 10:00:53;;;;;;;0.50;0.50;;;;;;;-146.42;100.00;61981.06;4990685;28;20274;-67
2024/01/03 10:03:19;;;;;;;1.00;1.00;;;;;;;-146.42;100.00;61981.06;5002061;28;20176;-66
2024/01/03 10:05:46;;;;;;;0.40;0.40;;;;;;;-146.42;100.00;61981.06;4990804;28;20875;-66
2024/01/03 10:08:16;;;;;;;2.17;2.10;;;;;;;-146.42;100.00;61981.06;5002577;28;20177;-66
2024/01/03 10:10:44;;;;;;;1.00;1.00;;;;;;;-146.42;100.00;61981.06;5002023;28;20221;-66
2024/01/03 10:13:20;;;;;;;0.50;0.50;;;;;;;-146.42;100.00;61981.06;4995808;28;20319;-65
2024/01/03 10:15:47;;;;;;;0.50;0.50;;;;;;;-146.42;100.00;61981.06;4992425;28;20280;-66
2024/01/03 10:18:18;;;;;;;0.40;0.40;;;;;;;-146.42;100.00;61981.06;4996321;28;20580;-67
2024/01/03 10:20:45;;;;;;;2.80;2.63;;;;;;;-146.42;100.00;61981.06;5001947;28;20226;-66
2024/01/03 10:23:15;;;;;;;1.50;1.50;;;;;;;-146.42;100.00;61981.06;4998482;28;20187;-67
2024/01/03 10:25:44;;;;;;;0.50;0.50;;;;;;;-146.42;100.00;61981.06;4997087;28;20177;-67
2024/01/03 10:28:17;;;;;;;0.57;0.57;;;;;;;-146.42;100.00;61981.06;5002694;28;20181;-67
2024/01/03 10:30:43;;;;;;;0.40;0.40;;;;;;;-146.42;100.00;61981.06;4992061;28;20205;-67
2024/01/03 10:33:09;;;;;;;0.50;0.50;;;;;;;-146.42;100.00;61981.06;4992288;28;20575;-66
2024/01/03 10:35:37;;;;;;;0.40;0.40;;;;;;;-146.42;100.00;61981.06;4991826;28;20192;-67
2024/01/03 10:38:04;;;;;;;0.50;0.50;;;;;;;-146.42;100.00;61981.06;4991989;28;20188;-66
2024/01/03 10:40:36;;;;;;;5.70;2.73;;;;;;;-146.42;100.00;61981.06;4992058;28;20189;-67
2024/01/03 10:43:02;;;;;;;0.40;0.40;;;;;;;-146.42;100.00;61981.06;4991361;28;20587;-67
2024/01/03 10:45:29;;;;;;;0.40;0.40;;;;;;;-146.42;100.00;61981.06;4990450;28;20197;-66
2024/01/03 10:47:55;;;;;;;0.77;0.77;;;;;;;-146.42;100.00;61981.06;4990494;28;20177;-67
2024/01/03 10:50:21;;;;;;;0.40;0.40;;;;;;;-146.42;100.00;61981.06;4990574;28;20731;-67
2024/01/03 10:52:47;;;;;;;6.00;5.60;;;;;;;-146.42;100.00;61981.06;4991224;28;20184;-67
2024/01/03 10:55:18;;;;;;;0.40;0.40;;;;;;;-146.42;100.00;61981.06;4991014;28;20173;-67
2024/01/03 10:57:58;;;;;;;0.60;0.60;;;;;;;-146.42;100.00;61981.06;4997961;28;20249;-67
2024/01/03 11:00:29;;;;;;;0.70;0.70;;;;;;;-146.42;100.00;61981.06;4998800;28;20172;-66
2024/01/03 11:03:02;;;;;;;3.97;3.80;;;;;;;-146.42;100.00;61981.06;4991442;28;20179;-66
2024/01/03 11:06:01;;;;;;;4.17;3.97;;;;;;;-146.42;100.00;61981.06;4974908;28;20181;-66